Aviation Digital Data Service (ADDS)

Output produced by METARs form (1323 UTC 25 September 2017)
found at http://www.aviationweather.gov/adds/metars/
 
METAR text: KSBP 251256Z 12003KT 10SM CLR 13/03 A2989 RMK AO2 SLP121 T01330033
Conditions at: KSBP (SAN LUIS OBISPO , CA, US) observed 1256 UTC 25 September 2017
Temperature: 13.3°C (56°F)
Dewpoint: 3.3°C (38°F) [RH = 51%]
Pressure (altimeter): 29.89 inches Hg (1012.3 mb)
[Sea-level pressure: 1012.1 mb]
Winds: from the ESE (120 degrees) at 3 MPH (3 knots; 1.6 m/s)
Visibility: 10 or more miles (16+ km)
Ceiling: at least 12,000 feet AGL
Clouds: sky clear below 12,000 feet AGL
Weather: no significant weather observed at this time

METAR text: KSBP 251156Z AUTO 00000KT 10SM CLR 13/04 A2989 RMK AO2 SLP119 T01330044 10144 20106 56007
Conditions at: KSBP (SAN LUIS OBISPO , CA, US) observed 1156 UTC 25 September 2017
Temperature: 13.3°C (56°F)
Dewpoint: 4.4°C (40°F) [RH = 55%]
Pressure (altimeter): 29.89 inches Hg (1012.3 mb)
[Sea-level pressure: 1011.9 mb]
Winds: calm
Visibility: 10 or more miles (16+ km)
Ceiling: at least 12,000 feet AGL
Clouds: sky clear below 12,000 feet AGL
Weather: automated observation with no human augmentation;
there may or may not be significant weather present at this time

METAR text: KSBP 251056Z AUTO 12004KT 10SM CLR 12/05 A2989 RMK AO2 SLP120 T01170050
Conditions at: KSBP (SAN LUIS OBISPO , CA, US) observed 1056 UTC 25 September 2017
Temperature: 11.7°C (53°F)
Dewpoint: 5.0°C (41°F) [RH = 63%]
Pressure (altimeter): 29.89 inches Hg (1012.3 mb)
[Sea-level pressure: 1012.0 mb]
Winds: from the ESE (120 degrees) at 5 MPH (4 knots; 2.1 m/s)
Visibility: 10 or more miles (16+ km)
Ceiling: at least 12,000 feet AGL
Clouds: sky clear below 12,000 feet AGL
Weather: automated observation with no human augmentation;
there may or may not be significant weather present at this time

METAR text: KSBP 250956Z AUTO 00000KT 10SM CLR 12/06 A2990 RMK AO2 SLP124 T01220061
Conditions at: KSBP (SAN LUIS OBISPO , CA, US) observed 0956 UTC 25 September 2017
Temperature: 12.2°C (54°F)
Dewpoint: 6.1°C (43°F) [RH = 66%]
Pressure (altimeter): 29.90 inches Hg (1012.6 mb)
[Sea-level pressure: 1012.4 mb]
Winds: calm
Visibility: 10 or more miles (16+ km)
Ceiling: at least 12,000 feet AGL
Clouds: sky clear below 12,000 feet AGL
Weather: automated observation with no human augmentation;
there may or may not be significant weather present at this time

METAR text: KSBP 250856Z AUTO 00000KT 10SM CLR 12/06 A2991 RMK AO2 SLP127 T01220056 58003
Conditions at: KSBP (SAN LUIS OBISPO , CA, US) observed 0856 UTC 25 September 2017
Temperature: 12.2°C (54°F)
Dewpoint: 5.6°C (42°F) [RH = 64%]
Pressure (altimeter): 29.91 inches Hg (1013.0 mb)
[Sea-level pressure: 1012.7 mb]
Winds: calm
Visibility: 10 or more miles (16+ km)
Ceiling: at least 12,000 feet AGL
Clouds: sky clear below 12,000 feet AGL
Weather: automated observation with no human augmentation;
there may or may not be significant weather present at this time

METAR text: KSBP 250756Z AUTO 13003KT 10SM CLR 13/07 A2992 RMK AO2 SLP129 T01280067 403110106
Conditions at: KSBP (SAN LUIS OBISPO , CA, US) observed 0756 UTC 25 September 2017
Temperature: 12.8°C (55°F)
Dewpoint: 6.7°C (44°F) [RH = 66%]
Pressure (altimeter): 29.92 inches Hg (1013.3 mb)
[Sea-level pressure: 1012.9 mb]
Winds: from the SE (130 degrees) at 3 MPH (3 knots; 1.6 m/s)
Visibility: 10 or more miles (16+ km)
Ceiling: at least 12,000 feet AGL
Clouds: sky clear below 12,000 feet AGL
Weather: automated observation with no human augmentation;
there may or may not be significant weather present at this time

METAR text: KSBP 250656Z AUTO 00000KT 10SM CLR 13/06 A2992 RMK AO2 SLP129 T01330061
Conditions at: KSBP (SAN LUIS OBISPO , CA, US) observed 0656 UTC 25 September 2017
Temperature: 13.3°C (56°F)
Dewpoint: 6.1°C (43°F) [RH = 62%]
Pressure (altimeter): 29.92 inches Hg (1013.3 mb)
[Sea-level pressure: 1012.9 mb]
Winds: calm
Visibility: 10 or more miles (16+ km)
Ceiling: at least 12,000 feet AGL
Clouds: sky clear below 12,000 feet AGL
Weather: automated observation with no human augmentation;
there may or may not be significant weather present at this time

METAR text: KSBP 250556Z AUTO 00000KT 10SM CLR 14/08 A2992 RMK AO2 SLP130 T01440078 10256 20144 51011
Conditions at: KSBP (SAN LUIS OBISPO , CA, US) observed 0556 UTC 25 September 2017
Temperature: 14.4°C (58°F)
Dewpoint: 7.8°C (46°F) [RH = 65%]
Pressure (altimeter): 29.92 inches Hg (1013.3 mb)
[Sea-level pressure: 1013.0 mb]
Winds: calm
Visibility: 10 or more miles (16+ km)
Ceiling: at least 12,000 feet AGL
Clouds: sky clear below 12,000 feet AGL
Weather: automated observation with no human augmentation;
there may or may not be significant weather present at this time